Terminal Aerodrome Forecast
Issued by NWS

Current Version | Previous Version | Graphics & Text | Print | Product List | Glossary On
Versions: 1 2 3 4 5 6 7 8 9 10 11 12 13 14 15 16 17 18 19 20 21
992
FTUS41 KILN 101128
TAFLUK
TAF
KLUK 101128Z 1012/1112 26012G18KT 4SM -SHSN OVC035
      TEMPO 1012/1016 1SM -SHSN OVC025
     FM101700 27014G20KT P6SM OVC035
     FM110000 27007KT P6SM BKN035
     FM111000 28005KT P6SM SCT035=

USA.gov is the U.S. government's official web portal to all federal, state and local government web resources and services.